Time;durP1;ratioP1;P1;durP2;ratioP2;P2;SDS_P1;SDS_P2;PMS_P1;PMS_P2;Temp;Humidity;BMP_temperature;BMP_pressure;BME280_temperature;BME280_humidity;BME280_pressure;Samples;Min_cycle;Max_cycle;Signal;HPM_P1;HPM_P2
2022/07/03 00:00:05;;;;;;;4.40;3.17;;;;;;;18.94;49.27;101333.81;4975208;28;20061;-60
2022/07/03 00:02:32;;;;;;;5.25;3.25;;;;;;;18.92;49.26;101326.94;4987686;28;20046;-62
2022/07/03 00:04:59;;;;;;;3.53;3.10;;;;;;;18.88;49.79;101320.16;4990645;28;20406;-62
2022/07/03 00:07:26;;;;;;;5.35;3.40;;;;;;;18.86;49.71;101330.94;4986134;28;20293;-61
2022/07/03 00:09:53;;;;;;;3.95;3.42;;;;;;;18.82;49.56;101328.66;4989779;28;20053;-59
2022/07/03 00:12:21;;;;;;;3.72;3.20;;;;;;;18.78;49.80;101324.53;4990974;28;20526;-60
2022/07/03 00:14:50;;;;;;;8.38;3.80;;;;;;;18.76;50.01;101335.34;4990907;28;20046;-62
2022/07/03 00:17:17;;;;;;;4.55;3.30;;;;;;;18.70;50.31;101334.03;4989777;28;20056;-61
2022/07/03 00:19:44;;;;;;;5.75;2.70;;;;;;;18.68;50.11;101321.75;4987485;28;20056;-61
2022/07/03 00:22:12;;;;;;;4.18;3.30;;;;;;;18.66;50.47;101326.38;4991891;28;20051;-56
2022/07/03 00:24:44;;;;;;;6.82;3.33;;;;;;;18.63;50.78;101329.28;4990948;28;20118;-60
2022/07/03 00:27:14;;;;;;;5.13;3.53;;;;;;;18.60;50.74;101317.06;4992037;28;20414;-60
2022/07/03 00:29:43;;;;;;;4.85;3.28;;;;;;;18.58;51.00;101323.47;4994443;28;20065;-59
2022/07/03 00:32:12;;;;;;;4.82;3.05;;;;;;;18.55;51.26;101321.06;4991977;28;20042;-61
2022/07/03 00:34:41;;;;;;;6.55;3.45;;;;;;;18.54;50.91;101314.03;4995501;28;20526;-56
2022/07/03 00:37:10;;;;;;;3.85;3.35;;;;;;;18.49;51.08;101317.06;4986613;28;20065;-60
2022/07/03 00:39:39;;;;;;;4.63;3.40;;;;;;;18.47;51.09;101316.38;4986043;28;20047;-59
2022/07/03 00:42:07;;;;;;;4.80;3.65;;;;;;;18.43;51.68;101315.75;4995428;28;20134;-57
2022/07/03 00:44:51;;;;;;;4.22;3.30;;;;;;;18.41;51.36;101311.50;4988783;28;20080;-61
2022/07/03 00:47:21;;;;;;;4.32;3.53;;;;;;;18.37;51.51;101316.28;4986245;28;20146;-60
2022/07/03 00:49:51;;;;;;;7.53;3.60;;;;;;;18.36;51.95;101311.03;4992364;28;20046;-60
2022/07/03 00:52:21;;;;;;;3.85;3.03;;;;;;;18.33;52.11;101304.16;4988027;28;20054;-61
2022/07/03 00:54:56;;;;;;;5.20;3.85;;;;;;;18.32;52.50;101302.44;4983562;28;20042;-60
2022/07/03 00:57:25;;;;;;;6.93;3.70;;;;;;;18.32;52.75;101299.78;4984027;28;20077;-60
2022/07/03 00:59:52;;;;;;;8.23;3.80;;;;;;;18.30;52.80;101299.06;4989303;28;20533;-61
2022/07/03 01:02:40;;;;;;;6.35;3.17;;;;;;;18.29;52.65;101300.03;4988022;28;20050;-61
2022/07/03 01:05:18;;;;;;;6.38;3.55;;;;;;;18.26;52.78;101300.28;4986118;28;20052;-58
2022/07/03 01:07:57;;;;;;;6.97;3.50;;;;;;;18.22;52.62;101297.00;4998994;28;20510;-60
2022/07/03 01:10:43;;;;;;;7.40;3.65;;;;;;;18.21;53.31;101286.47;4986637;28;20221;-61
2022/07/03 01:13:10;;;;;;;;;;;;;;;18.18;54.06;101294.72;4994696;28;20070;-59
2022/07/03 01:15:57;;;;;;;7.05;3.25;;;;;;;18.14;53.66;101290.59;4991737;28;19928;-61
2022/07/03 01:18:43;;;;;;;10.35;3.88;;;;;;;18.11;53.68;101288.19;4987018;28;20486;-61
2022/07/03 01:21:39;;;;;;;8.40;3.72;;;;;;;18.10;54.13;101284.69;4987262;28;20517;-61
2022/07/03 01:24:12;;;;;;;6.93;4.10;;;;;;;18.09;53.97;101282.13;4991742;28;20371;-58
2022/07/03 01:26:41;;;;;;;5.60;3.78;;;;;;;18.06;53.83;101285.06;4991752;28;20050;-56
2022/07/03 01:29:13;;;;;;;7.85;3.65;;;;;;;18.02;53.60;101275.63;4988187;28;20169;-60
2022/07/03 01:31:41;;;;;;;5.07;3.30;;;;;;;18.01;54.04;101273.91;4992003;28;20058;-59
2022/07/03 01:34:14;;;;;;;4.15;3.75;;;;;;;17.98;54.59;101280.34;4980834;28;20047;-56
2022/07/03 01:36:42;;;;;;;4.80;3.70;;;;;;;17.95;54.67;101273.41;4980802;28;20372;-58
2022/07/03 01:39:10;;;;;;;5.20;3.42;;;;;;;17.93;54.50;101286.03;4987910;28;20101;-60
2022/07/03 01:41:41;;;;;;;4.03;3.50;;;;;;;17.91;54.48;101271.13;4985256;28;20047;-59
2022/07/03 01:44:11;;;;;;;6.97;3.65;;;;;;;17.88;54.45;101277.56;4989401;28;20038;-61
2022/07/03 01:46:41;;;;;;;4.70;3.17;;;;;;;17.84;55.03;101269.94;4990999;28;20054;-59
2022/07/03 01:49:11;;;;;;;4.75;3.22;;;;;;;17.81;54.87;101270.16;4990659;28;20586;-57
2022/07/03 01:51:38;;;;;;;4.53;3.38;;;;;;;17.78;54.93;101270.41;4996718;28;20046;-58
2022/07/03 01:54:06;;;;;;;5.07;3.70;;;;;;;17.75;55.44;101268.84;4985879;28;20042;-60
2022/07/03 01:56:34;;;;;;;4.55;4.05;;;;;;;17.73;55.63;101270.72;4984271;28;20066;-60
2022/07/03 01:59:02;;;;;;;3.97;3.53;;;;;;;17.70;55.78;101260.34;4987081;28;20050;-60
2022/07/03 02:02:10;;;;;;;6.25;4.03;;;;;;;17.68;55.71;101270.25;4986897;28;20077;-59
2022/07/03 02:05:08;;;;;;;4.00;3.60;;;;;;;17.66;56.08;101270.38;4937484;28;20051;-57
2022/07/03 02:07:40;;;;;;;6.32;3.88;;;;;;;17.65;56.03;101262.50;4946587;28;20063;-62
2022/07/03 02:10:08;;;;;;;6.40;3.25;;;;;;;17.62;56.04;101266.25;4962351;28;20345;-62
2022/07/03 02:12:49;;;;;;;8.38;3.80;;;;;;;17.61;56.09;101271.72;4986364;28;20050;-62
2022/07/03 02:15:18;;;;;;;4.70;3.30;;;;;;;17.58;56.59;101261.28;4987142;28;20065;-63
2022/07/03 02:17:47;;;;;;;3.65;3.35;;;;;;;17.55;56.56;101259.69;4978134;28;20505;-61
2022/07/03 02:20:16;;;;;;;4.70;3.65;;;;;;;17.56;57.08;101263.22;4986460;28;20050;-62
2022/07/03 02:22:52;;;;;;;5.55;3.55;;;;;;;17.55;56.81;101262.38;4986729;28;20076;-60
2022/07/03 02:25:23;;;;;;;6.78;3.95;;;;;;;17.50;56.77;101261.03;4983436;28;20050;-60
2022/07/03 02:27:55;;;;;;;6.55;3.70;;;;;;;17.47;56.78;101256.78;5036217;23;20113;-56
2022/07/03 02:30:27;;;;;;;4.80;3.53;;;;;;;17.46;57.31;101263.09;5021296;28;20045;-58
2022/07/03 02:32:56;;;;;;;6.55;4.13;;;;;;;17.44;57.59;101263.22;5036554;28;20056;-57
2022/07/03 02:35:29;;;;;;;6.65;3.53;;;;;;;17.45;57.58;101262.25;5021591;28;20053;-57
2022/07/03 02:38:04;;;;;;;5.68;3.72;;;;;;;17.43;57.67;101261.53;5002343;28;20281;-56
2022/07/03 02:40:43;;;;;;;4.15;3.75;;;;;;;17.41;57.08;101257.28;5010087;28;20064;-57
2022/07/03 02:43:41;;;;;;;4.68;3.92;;;;;;;17.38;57.50;101258.38;5011084;28;20430;-58
2022/07/03 02:49:16;;;;;;;7.22;3.22;;;;;;;17.34;57.58;101262.25;5009531;28;20060;-58
2022/07/03 02:51:48;;;;;;;5.72;4.00;;;;;;;17.34;57.97;101258.75;5011510;28;20101;-57
2022/07/03 02:54:15;;;;;;;5.93;3.72;;;;;;;17.34;58.21;101264.06;4992301;28;20046;-59
2022/07/03 02:57:04;;;;;;;4.05;3.67;;;;;;;17.33;58.14;101259.69;5003801;28;20046;-59
2022/07/03 02:59:50;;;;;;;4.25;3.70;;;;;;;17.33;57.90;101257.00;5016076;28;20524;-57
2022/07/03 03:02:51;;;;;;;5.45;3.80;;;;;;;17.29;58.42;101256.44;5022603;28;20069;-57
2022/07/03 03:05:18;;;;;;;7.50;3.72;;;;;;;17.30;58.61;101260.78;5013770;28;20122;-56
2022/07/03 03:07:52;;;;;;;3.92;3.22;;;;;;;17.30;58.28;101263.44;5012279;28;20045;-58
2022/07/03 03:10:20;;;;;;;5.70;3.70;;;;;;;17.30;58.33;101255.47;4993990;28;20344;-57
2022/07/03 03:12:53;;;;;;;7.07;4.45;;;;;;;17.29;58.53;101247.56;5013469;28;20421;-56
2022/07/03 03:15:22;;;;;;;7.65;6.03;;;;;;;17.29;58.25;101260.88;4994931;28;20073;-58
2022/07/03 03:17:51;;;;;;;10.80;6.78;;;;;;;17.29;58.55;101258.22;4996811;28;20053;-59
2022/07/03 03:20:22;;;;;;;8.23;4.93;;;;;;;17.30;58.36;101249.28;5011178;28;20073;-59
2022/07/03 03:22:55;;;;;;;4.85;4.03;;;;;;;17.28;58.90;101254.72;5007335;28;20045;-60
2022/07/03 03:25:23;;;;;;;6.18;4.63;;;;;;;17.27;58.68;101253.03;5015640;28;20180;-60
2022/07/03 03:27:50;;;;;;;7.65;4.05;;;;;;;17.27;59.02;101250.38;5008107;28;20046;-59
2022/07/03 03:30:17;;;;;;;6.45;4.00;;;;;;;17.29;58.84;101244.91;4994219;28;20072;-57
2022/07/03 03:32:44;;;;;;;6.63;4.10;;;;;;;17.29;58.45;101248.44;5019887;28;20061;-57
2022/07/03 03:35:11;;;;;;;4.88;3.97;;;;;;;17.32;58.46;101247.34;4999847;28;20513;-59
2022/07/03 03:37:39;;;;;;;5.90;3.67;;;;;;;17.34;58.99;101254.25;5020316;28;20045;-57
2022/07/03 03:40:06;;;;;;;4.38;3.80;;;;;;;17.34;58.78;101248.94;5005451;28;20076;-56
2022/07/03 03:42:33;;;;;;;5.32;4.43;;;;;;;17.36;58.99;101249.66;5007969;28;20101;-57
2022/07/03 03:45:01;;;;;;;5.72;3.88;;;;;;;17.40;59.29;101244.94;4992415;28;20045;-57
2022/07/03 03:47:28;;;;;;;4.97;3.67;;;;;;;17.41;58.98;101246.63;4999696;28;20054;-56
2022/07/03 03:49:55;;;;;;;5.80;3.85;;;;;;;17.43;58.97;101242.06;4993978;28;20060;-57
2022/07/03 03:52:23;;;;;;;4.97;4.00;;;;;;;17.47;58.61;101240.81;5009110;28;20046;-59
2022/07/03 03:54:50;;;;;;;5.63;4.28;;;;;;;17.50;58.54;101251.22;4990038;28;20486;-58
2022/07/03 03:57:21;;;;;;;9.80;3.60;;;;;;;17.53;58.62;101253.66;5012009;28;20053;-58
2022/07/03 03:59:49;;;;;;;5.07;3.85;;;;;;;17.56;58.44;101250.78;5007170;28;20085;-60
2022/07/03 04:02:16;;;;;;;5.07;3.63;;;;;;;17.57;58.35;101247.13;5007849;28;20065;-59
2022/07/03 04:04:44;;;;;;;5.60;3.50;;;;;;;17.60;58.93;101249.53;5011981;28;20056;-59
2022/07/03 04:07:11;;;;;;;5.40;4.10;;;;;;;17.62;58.54;101247.63;5014992;28;20037;-58
2022/07/03 04:09:38;;;;;;;6.70;3.72;;;;;;;17.63;58.78;101249.31;5011301;28;20198;-59
2022/07/03 04:12:06;;;;;;;3.65;3.30;;;;;;;17.66;58.59;101243.75;5015569;28;20445;-61
2022/07/03 04:14:34;;;;;;;5.20;3.45;;;;;;;17.67;58.61;101244.59;5014811;28;20629;-58
2022/07/03 04:17:01;;;;;;;6.75;3.72;;;;;;;17.68;58.57;101240.97;4985902;28;20057;-59
2022/07/03 04:19:28;;;;;;;6.07;3.88;;;;;;;17.68;58.78;101241.81;5014577;28;20555;-63
2022/07/03 04:21:55;;;;;;;4.70;3.78;;;;;;;17.70;58.64;101239.03;5009938;28;20050;-60
2022/07/03 04:24:23;;;;;;;4.95;3.65;;;;;;;17.69;58.93;101242.66;4993913;28;20050;-59
2022/07/03 04:26:50;;;;;;;8.88;4.32;;;;;;;17.69;59.24;101243.50;5008443;28;20062;-58
2022/07/03 04:29:17;;;;;;;6.13;4.32;;;;;;;17.72;58.97;101240.59;4992276;28;20060;-59
2022/07/03 04:31:44;;;;;;;5.80;4.05;;;;;;;17.77;58.92;101245.59;5012700;28;20065;-57
2022/07/03 04:34:12;;;;;;;5.15;3.75;;;;;;;17.79;58.81;101249.00;5003808;28;20046;-61
2022/07/03 04:36:39;;;;;;;5.18;3.63;;;;;;;17.84;58.77;101243.31;5010434;28;20050;-56
2022/07/03 04:39:07;;;;;;;4.93;3.70;;;;;;;17.88;58.98;101242.09;5011838;28;20050;-59
2022/07/03 04:41:34;;;;;;;6.38;4.25;;;;;;;17.92;59.05;101246.16;5009368;28;20382;-58
2022/07/03 04:44:01;;;;;;;6.35;3.55;;;;;;;17.94;58.84;101249.56;5015685;28;20701;-59
2022/07/03 04:46:28;;;;;;;5.50;4.03;;;;;;;17.94;59.25;101242.44;5020371;28;20050;-59
2022/07/03 04:48:55;;;;;;;4.68;3.65;;;;;;;17.99;58.81;101241.22;5021940;28;20061;-60
2022/07/03 04:51:22;;;;;;;7.75;4.28;;;;;;;18.06;59.05;101235.28;5005447;28;20056;-61
2022/07/03 04:53:50;;;;;;;4.75;3.88;;;;;;;18.09;59.00;101235.00;5003211;28;20114;-58
2022/07/03 04:56:17;;;;;;;7.13;4.07;;;;;;;18.16;58.84;101225.56;5011855;28;20049;-59
2022/07/03 04:58:45;;;;;;;5.95;3.90;;;;;;;18.23;58.61;101220.56;5015510;28;20418;-58
2022/07/03 05:01:12;;;;;;;5.07;3.88;;;;;;;18.32;58.43;101221.63;5014728;28;20073;-57
2022/07/03 05:03:43;;;;;;;5.90;3.83;;;;;;;18.37;58.35;101222.97;5015963;28;20060;-59
2022/07/03 05:06:10;;;;;;;4.47;3.85;;;;;;;18.42;58.72;101215.44;5006341;28;20054;-60
2022/07/03 05:08:37;;;;;;;7.13;4.32;;;;;;;18.47;58.57;101215.06;5019575;28;20367;-59
2022/07/03 05:11:04;;;;;;;5.43;3.88;;;;;;;18.55;58.14;101225.94;5009828;28;20056;-59
2022/07/03 05:13:31;;;;;;;5.57;3.75;;;;;;;18.62;58.14;101212.94;5011319;28;20049;-57
2022/07/03 05:15:58;;;;;;;6.00;3.53;;;;;;;18.66;57.99;101217.03;5009064;28;20069;-57
2022/07/03 05:18:25;;;;;;;5.75;3.78;;;;;;;18.70;57.83;101210.50;5010757;28;20063;-57
2022/07/03 05:20:52;;;;;;;5.57;3.85;;;;;;;18.71;57.80;101214.84;5011821;28;20061;-59
2022/07/03 05:23:20;;;;;;;7.00;4.05;;;;;;;18.77;57.72;101213.50;5012272;28;20494;-58
2022/07/03 05:25:47;;;;;;;8.63;4.15;;;;;;;18.86;57.37;101213.56;5013183;28;20064;-59
2022/07/03 05:28:14;;;;;;;6.18;3.60;;;;;;;18.93;57.25;101216.56;4978819;28;1061345;-57
2022/07/03 05:30:41;;;;;;;6.22;3.42;;;;;;;18.98;56.69;101214.34;5014240;28;21642;-59
2022/07/03 05:33:08;;;;;;;6.03;3.70;;;;;;;19.03;56.87;101213.94;5010783;28;20499;-56
2022/07/03 05:35:35;;;;;;;4.32;3.75;;;;;;;19.15;56.55;101210.25;5014536;28;20049;-57
2022/07/03 05:38:02;;;;;;;5.18;3.67;;;;;;;19.26;56.30;101217.31;5000348;28;20046;-59
2022/07/03 05:40:30;;;;;;;5.82;3.38;;;;;;;19.29;55.71;101220.56;5012953;28;20061;-60
2022/07/03 05:42:57;;;;;;;5.63;3.58;;;;;;;19.34;55.71;101218.34;5012009;28;20688;-58
2022/07/03 05:45:24;;;;;;;5.80;3.88;;;;;;;19.41;55.54;101222.19;5020397;28;20046;-58
2022/07/03 05:47:51;;;;;;;6.03;3.88;;;;;;;19.48;54.95;101220.66;5015438;28;20050;-59
2022/07/03 05:50:18;;;;;;;4.03;3.20;;;;;;;19.57;55.06;101216.34;5010376;28;20058;-58
2022/07/03 05:52:45;;;;;;;3.72;3.05;;;;;;;19.65;54.62;101218.38;5008176;28;20049;-60
2022/07/03 05:55:12;;;;;;;3.83;3.03;;;;;;;19.73;54.52;101221.25;5009755;28;20044;-60
2022/07/03 05:57:40;;;;;;;3.08;2.60;;;;;;;19.85;54.03;101213.94;4996875;28;21159;-56
2022/07/03 06:00:07;;;;;;;3.65;2.88;;;;;;;19.95;53.48;101210.34;5008430;28;20137;-59
2022/07/03 06:02:34;;;;;;;4.90;2.90;;;;;;;20.00;53.37;101220.63;5010018;28;20049;-59
2022/07/03 06:05:02;;;;;;;4.90;2.95;;;;;;;20.16;53.22;101207.53;5010034;28;20057;-57
2022/07/03 06:07:29;;;;;;;4.05;2.80;;;;;;;20.24;52.29;101209.53;5012688;28;20061;-55
2022/07/03 06:09:57;;;;;;;2.90;2.60;;;;;;;20.29;51.95;101199.28;5011889;28;20050;-61
2022/07/03 06:12:24;;;;;;;3.65;3.08;;;;;;;20.38;51.63;101201.09;5006155;28;20033;-59
2022/07/03 06:14:51;;;;;;;6.32;2.72;;;;;;;20.46;51.48;101193.22;5011584;28;20050;-59
2022/07/03 06:17:18;;;;;;;4.80;3.00;;;;;;;20.60;50.52;101208.03;5019118;28;20057;-58
2022/07/03 06:19:45;;;;;;;5.20;2.80;;;;;;;20.69;50.04;101198.31;5015417;28;20056;-58
2022/07/03 06:22:13;;;;;;;4.75;2.53;;;;;;;20.79;50.08;101192.97;5014776;28;20050;-59
2022/07/03 06:24:40;;;;;;;4.38;2.38;;;;;;;20.88;49.96;101192.09;4998883;28;20181;-60
2022/07/03 06:27:07;;;;;;;4.32;2.63;;;;;;;20.95;50.12;101195.91;5016483;28;20050;-58
2022/07/03 06:29:34;;;;;;;3.45;2.80;;;;;;;20.97;49.92;101192.06;5018548;28;20046;-59
2022/07/03 06:32:03;;;;;;;3.45;2.47;;;;;;;21.02;49.44;101202.34;5016636;28;20053;-60
2022/07/03 06:34:30;;;;;;;5.93;2.70;;;;;;;21.14;49.53;101198.53;5009591;28;20057;-60
2022/07/03 06:36:57;;;;;;;3.97;2.45;;;;;;;21.24;49.47;101193.13;4991660;28;20053;-60
2022/07/03 06:39:24;;;;;;;3.97;2.92;;;;;;;21.36;49.12;101201.88;5005744;28;20053;-58
2022/07/03 06:41:51;;;;;;;3.15;2.80;;;;;;;21.41;48.65;101194.25;5010740;28;20054;-55
2022/07/03 06:44:19;;;;;;;3.83;2.92;;;;;;;21.53;48.20;101184.22;5008685;28;20538;-58
2022/07/03 06:46:46;;;;;;;3.50;2.22;;;;;;;21.54;47.65;101191.25;5017648;28;20049;-60
2022/07/03 06:49:13;;;;;;;3.05;2.63;;;;;;;21.62;47.99;101181.47;5007414;28;20050;-61
2022/07/03 06:51:40;;;;;;;3.85;2.78;;;;;;;21.67;47.85;101183.72;5012284;28;20052;-60
2022/07/03 06:54:07;;;;;;;6.30;2.90;;;;;;;21.74;47.79;101176.75;5007005;28;20072;-60
2022/07/03 06:56:34;;;;;;;5.30;2.47;;;;;;;21.87;46.94;101181.75;5009980;28;20054;-59
2022/07/03 06:59:02;;;;;;;6.53;2.80;;;;;;;21.89;47.13;101183.31;5019398;28;20092;-59
2022/07/03 07:01:29;;;;;;;3.88;2.60;;;;;;;21.95;46.78;101171.97;5006777;28;20548;-58
2022/07/03 07:03:56;;;;;;;4.55;2.60;;;;;;;21.93;47.03;101173.97;4993237;28;20053;-58
2022/07/03 07:06:23;;;;;;;4.43;2.90;;;;;;;22.06;47.02;101176.25;5011431;28;20045;-59
2022/07/03 07:08:50;;;;;;;3.28;2.28;;;;;;;22.20;46.48;101172.28;5024554;28;20049;-57
2022/07/03 07:11:18;;;;;;;6.47;2.42;;;;;;;22.26;46.28;101163.59;5012363;28;20485;-59
2022/07/03 07:13:45;;;;;;;5.40;2.30;;;;;;;22.36;46.18;101172.41;5013149;28;20057;-58
2022/07/03 07:16:12;;;;;;;4.80;2.50;;;;;;;22.52;45.39;101165.50;5012501;28;20049;-59
2022/07/03 07:18:43;;;;;;;3.67;2.67;;;;;;;22.56;45.22;101159.69;5015483;28;20069;-59
2022/07/03 07:21:10;;;;;;;5.50;2.45;;;;;;;22.58;45.01;101167.56;5007966;28;20061;-59
2022/07/03 07:23:37;;;;;;;3.97;2.40;;;;;;;22.62;45.00;101160.91;5017773;28;20052;-53
2022/07/03 07:26:04;;;;;;;3.55;2.35;;;;;;;22.74;44.88;101165.88;4987504;28;20046;-55
2022/07/03 07:28:33;;;;;;;11.02;4.35;;;;;;;22.83;45.29;101168.59;5006840;28;20056;-56
2022/07/03 07:31:01;;;;;;;4.88;2.67;;;;;;;22.90;44.70;101157.09;4999601;28;20058;-58
2022/07/03 07:33:28;;;;;;;5.38;2.53;;;;;;;23.00;44.57;101146.25;5010293;28;20550;-57
2022/07/03 07:35:55;;;;;;;2.58;2.22;;;;;;;23.13;44.02;101159.25;4997880;28;20061;-57
2022/07/03 07:38:22;;;;;;;8.40;2.83;;;;;;;23.24;44.41;101149.09;4993571;28;20444;-59
2022/07/03 07:40:49;;;;;;;5.68;2.50;;;;;;;23.34;44.20;101148.97;5010400;28;20069;-59
2022/07/03 07:43:16;;;;;;;6.95;2.63;;;;;;;23.41;44.66;101152.66;4991393;28;20064;-59
2022/07/03 07:45:43;;;;;;;3.97;2.10;;;;;;;23.54;43.51;101152.22;5009698;28;20045;-58
2022/07/03 07:48:11;;;;;;;5.15;2.47;;;;;;;23.61;42.64;101152.44;5006344;28;20051;-60
2022/07/03 07:50:38;;;;;;;5.30;2.20;;;;;;;23.53;42.76;101147.88;5001320;28;20050;-57
2022/07/03 07:53:05;;;;;;;3.33;2.00;;;;;;;23.59;42.48;101154.44;5009999;28;20050;-57
2022/07/03 07:55:32;;;;;;;3.63;2.38;;;;;;;23.68;42.44;101143.56;4994209;28;20050;-58
2022/07/03 07:58:00;;;;;;;4.88;2.60;;;;;;;23.78;42.08;101142.63;4995125;28;20061;-60
2022/07/03 08:00:27;;;;;;;5.10;2.72;;;;;;;23.93;41.52;101132.91;4996911;28;20634;-59
2022/07/03 08:05:40;;;;;;;5.95;2.10;;;;;;;24.18;40.93;101148.06;4994867;28;20291;-59
2022/07/03 08:08:16;;;;;;;5.28;1.90;;;;;;;24.24;40.28;101136.63;5002286;28;20058;-60
2022/07/03 08:10:48;;;;;;;3.85;2.22;;;;;;;24.21;40.24;101133.44;5010668;28;20054;-57
2022/07/03 08:13:19;;;;;;;5.43;2.05;;;;;;;24.34;40.04;101135.63;5011141;28;20072;-59
2022/07/03 08:15:49;;;;;;;5.05;2.20;;;;;;;24.42;39.68;101149.97;5004290;28;20053;-59
2022/07/03 08:18:17;;;;;;;3.28;2.13;;;;;;;24.41;39.07;101134.84;5006399;28;20129;-57
2022/07/03 08:20:44;;;;;;;3.92;2.10;;;;;;;24.47;39.83;101134.16;4988315;28;20560;-59
2022/07/03 08:23:11;;;;;;;3.75;2.30;;;;;;;24.60;39.44;101125.56;5007222;28;20058;-58
2022/07/03 08:25:38;;;;;;;5.20;2.33;;;;;;;24.71;38.96;101124.38;5004287;28;20049;-58
2022/07/03 08:28:05;;;;;;;2.65;1.73;;;;;;;24.83;38.82;101130.25;5002914;28;20057;-58
2022/07/03 08:30:32;;;;;;;4.90;2.03;;;;;;;24.94;38.17;101128.03;5004561;28;20062;-59
2022/07/03 08:32:59;;;;;;;3.65;2.10;;;;;;;24.96;38.50;101131.41;4999681;28;21237;-59
2022/07/03 08:35:27;;;;;;;2.38;1.80;;;;;;;25.07;37.84;101124.78;5006265;28;20049;-58
2022/07/03 08:37:55;;;;;;;3.58;2.13;;;;;;;25.15;38.39;101126.66;4984521;28;20046;-58
2022/07/03 08:40:22;;;;;;;6.80;2.65;;;;;;;25.24;38.15;101126.47;4974588;28;20069;-57
2022/07/03 08:42:58;;;;;;;3.58;2.03;;;;;;;25.22;37.57;101117.72;5004992;28;20074;-59
2022/07/03 08:45:25;;;;;;;2.35;1.75;;;;;;;25.30;37.48;101121.38;5009223;28;20061;-60
2022/07/03 08:47:57;;;;;;;4.82;1.75;;;;;;;25.37;37.20;101123.22;5007917;28;20058;-59
2022/07/03 08:50:25;;;;;;;4.28;2.13;;;;;;;25.45;37.09;101127.75;5001193;28;20137;-59
2022/07/03 08:52:52;;;;;;;3.63;2.28;;;;;;;25.48;36.92;101121.97;5002276;28;20069;-58
2022/07/03 08:55:19;;;;;;;5.15;2.05;;;;;;;25.47;37.07;101114.91;5006920;28;20506;-56
2022/07/03 08:57:49;;;;;;;2.83;2.20;;;;;;;25.44;37.02;101113.44;5002642;28;20053;-56
2022/07/03 09:00:18;;;;;;;3.88;2.08;;;;;;;25.52;37.13;101113.34;4994864;28;20058;-57
2022/07/03 09:02:47;;;;;;;4.68;2.00;;;;;;;25.62;36.89;101115.00;4997962;28;20084;-55
2022/07/03 09:05:15;;;;;;;3.05;2.47;;;;;;;25.70;36.71;101104.16;4997045;28;20057;-55
2022/07/03 09:07:44;;;;;;;3.40;2.20;;;;;;;25.75;36.45;101116.09;4996227;28;21275;-55
2022/07/03 09:10:13;;;;;;;2.38;2.10;;;;;;;25.79;36.69;101105.00;4967004;28;20056;-59
2022/07/03 09:12:42;;;;;;;4.30;1.80;;;;;;;25.86;36.33;101100.59;5003735;28;20049;-57
2022/07/03 09:15:10;;;;;;;4.05;1.90;;;;;;;25.85;36.08;101110.53;5000674;28;20062;-58
2022/07/03 09:17:38;;;;;;;2.03;1.88;;;;;;;25.83;35.83;101096.38;5001188;28;20047;-56
2022/07/03 09:20:06;;;;;;;1.63;1.30;;;;;;;25.74;36.28;101103.63;4982662;28;20926;-56
2022/07/03 09:22:35;;;;;;;6.32;2.38;;;;;;;25.80;35.70;101102.09;4999834;28;20518;-57
2022/07/03 09:25:11;;;;;;;9.30;2.22;;;;;;;25.87;35.93;101096.84;4986351;28;20053;-56
2022/07/03 09:27:47;;;;;;;5.28;2.05;;;;;;;25.96;35.30;101087.69;4998031;28;20487;-57
2022/07/03 09:30:15;;;;;;;2.72;1.98;;;;;;;26.11;35.20;101099.38;4994663;28;20062;-57
2022/07/03 09:32:47;;;;;;;2.38;1.83;;;;;;;26.14;35.31;101096.31;4996135;28;20053;-54
2022/07/03 09:35:19;;;;;;;3.20;2.15;;;;;;;26.25;34.34;101086.94;4999077;28;20072;-56
2022/07/03 09:38:07;;;;;;;1.98;1.70;;;;;;;26.26;34.14;101089.47;5004185;28;20500;-57
2022/07/03 09:41:04;;;;;;;3.13;1.65;;;;;;;26.22;34.54;101100.81;5003604;28;20053;-59
2022/07/03 09:43:31;;;;;;;2.45;1.67;;;;;;;26.31;34.15;101086.22;4991347;28;20050;-57
2022/07/03 09:46:02;;;;;;;4.38;1.90;;;;;;;26.35;33.38;101090.25;5000165;28;20057;-55
2022/07/03 09:48:33;;;;;;;3.75;2.30;;;;;;;26.34;33.87;101090.41;5008328;28;20064;-59
2022/07/03 09:51:28;;;;;;;3.92;1.95;;;;;;;26.42;34.36;101088.47;5000787;28;20051;-55
2022/07/03 09:53:56;;;;;;;2.70;1.90;;;;;;;26.47;34.27;101085.25;4993267;28;20540;-57
2022/07/03 09:56:37;;;;;;;4.70;2.10;;;;;;;26.47;34.20;101096.06;4999456;28;20058;-58
2022/07/03 09:59:13;;;;;;;3.80;2.00;;;;;;;26.55;33.89;101092.47;5001856;28;20454;-59
2022/07/03 10:01:42;;;;;;;3.03;2.00;;;;;;;26.55;33.79;101090.59;4992731;28;20054;-57
2022/07/03 10:04:22;;;;;;;5.03;1.92;;;;;;;26.59;32.99;101075.69;4992712;28;20093;-55
2022/07/03 10:06:56;;;;;;;3.38;1.88;;;;;;;26.65;33.88;101080.34;4989342;28;20053;-57
2022/07/03 10:09:23;;;;;;;3.47;1.95;;;;;;;26.83;33.53;101077.28;4994248;28;20065;-56
2022/07/03 10:11:51;;;;;;;3.22;1.88;;;;;;;26.96;32.84;101079.34;4988984;28;20508;-57
2022/07/03 10:14:20;;;;;;;2.10;1.90;;;;;;;26.88;33.23;101074.88;4994603;28;20474;-56
2022/07/03 10:16:47;;;;;;;4.35;1.75;;;;;;;26.99;32.89;101079.00;4991531;28;20125;-57
2022/07/03 10:19:19;;;;;;;3.22;1.88;;;;;;;26.89;32.81;101064.94;4988477;28;20100;-57
2022/07/03 10:21:59;;;;;;;5.22;1.70;;;;;;;26.86;33.35;101059.88;4984773;28;20060;-57
2022/07/03 10:24:28;;;;;;;4.20;1.98;;;;;;;26.90;34.10;101069.31;4992921;28;20062;-58
2022/07/03 10:26:57;;;;;;;6.50;1.80;;;;;;;26.96;33.62;101065.84;5002265;28;20065;-58
2022/07/03 10:29:28;;;;;;;2.13;1.90;;;;;;;27.09;33.37;101068.75;5006253;28;20046;-57
2022/07/03 10:31:57;;;;;;;2.53;2.05;;;;;;;27.21;32.89;101053.75;4991856;28;20058;-55
2022/07/03 10:34:26;;;;;;;4.40;1.80;;;;;;;27.26;32.60;101050.47;5010621;28;20065;-59
2022/07/03 10:37:03;;;;;;;2.70;1.80;;;;;;;27.34;32.48;101065.75;5016774;28;20050;-56
2022/07/03 10:44:45;;;;;;;3.15;1.80;;;;;;;27.29;33.27;101047.41;4999471;28;20062;-56
2022/07/03 10:45:31;;;;;;;2.25;1.95;;;;;;;27.58;32.73;101042.94;5001355;28;20042;-58
2022/07/03 10:47:59;;;;;;;5.88;2.17;;;;;;;27.83;31.82;101044.28;5024140;28;20068;-59
2022/07/03 10:50:26;;;;;;;5.40;1.60;;;;;;;27.89;31.99;101038.06;5018002;28;20525;-59
2022/07/03 10:53:23;;;;;;;2.45;1.60;;;;;;;28.18;32.36;101028.13;5019008;28;20088;-59
2022/07/03 10:56:04;;;;;;;5.68;1.83;;;;;;;28.44;31.84;101035.63;5016300;28;20049;-58
2022/07/03 10:58:31;;;;;;;5.15;2.10;;;;;;;28.36;31.83;101044.75;5016296;28;20054;-58
2022/07/03 11:01:00;;;;;;;2.22;1.92;;;;;;;28.32;32.25;101042.59;5013409;28;20053;-59
2022/07/03 11:03:55;;;;;;;2.15;1.75;;;;;;;28.52;31.48;101036.31;5024224;28;20060;-57
2022/07/03 11:06:42;;;;;;;5.05;1.58;;;;;;;28.66;31.55;101022.88;4992521;28;20360;-58
2022/07/03 11:09:11;;;;;;;7.15;2.15;;;;;;;28.83;31.08;101028.81;4994596;28;20042;-58
2022/07/03 11:11:55;;;;;;;4.10;1.90;;;;;;;28.77;30.86;101020.44;5016517;28;20057;-57
2022/07/03 11:14:27;;;;;;;2.33;1.90;;;;;;;28.91;30.82;101007.78;5018997;28;20045;-57
2022/07/03 11:17:16;;;;;;;3.10;1.70;;;;;;;29.15;30.45;101014.59;5012348;28;20414;-59
2022/07/03 11:19:43;;;;;;;7.60;2.20;;;;;;;29.30;30.30;101010.88;5014833;28;20054;-60
2022/07/03 11:22:15;;;;;;;2.92;1.85;;;;;;;29.47;29.86;101007.59;5013306;28;20053;-59
2022/07/03 11:24:48;;;;;;;2.75;1.73;;;;;;;29.45;29.78;101006.97;5007639;28;20050;-59
2022/07/03 11:27:22;;;;;;;3.17;1.85;;;;;;;29.74;29.72;101003.06;4994098;28;20709;-59
2022/07/03 11:29:55;;;;;;;3.97;1.45;;;;;;;30.06;29.36;100995.16;4998585;28;20524;-58
2022/07/03 11:32:49;;;;;;;2.03;1.80;;;;;;;29.88;28.46;100998.50;4995655;28;20486;-58
2022/07/03 11:35:48;;;;;;;2.93;1.70;;;;;;;29.59;29.05;100994.31;5007424;28;20053;-58
2022/07/03 11:38:19;;;;;;;6.10;1.77;;;;;;;29.53;29.28;100993.19;5015190;28;20053;-59
2022/07/03 11:40:49;;;;;;;2.47;1.77;;;;;;;29.46;29.36;101003.22;5011643;28;20060;-58
2022/07/03 11:43:16;;;;;;;3.80;1.70;;;;;;;29.22;30.01;100988.31;4992550;28;20092;-57
2022/07/03 11:45:43;;;;;;;3.20;1.55;;;;;;;29.20;29.82;100976.84;5012232;28;20405;-58
2022/07/03 11:48:16;;;;;;;3.00;1.50;;;;;;;29.53;29.77;100976.09;5011068;28;20521;-56